메인 페이지
METAR-TAF:

METAR-TAF

공항 :

하갓냐, 괌, 미국

앤토니오 B. 원 팻 국제공항

위도: 13-29N, 경도: 144-48E, 고도: 91m

현재 날씨관측

예보는 56분 전, 23:54시(UTC)에 발표되었습니다.
10kt, 순간 최대 풍속 18kt
온도 25°C
습도 100%
기압 1015 hPa
시정: 4.8km
고도 4100ft 상공 구름 많음
고도 5000ft 상공 흐림
약한비, 박무

METAR: PGUM 172354Z 10010G18KT 3SM -RA BR BKN041 OVC050 25/25 A2997 RMK AO2 RAE35B46 SLP141 P0003 60007 T02500250 10261 20239 51012

시각: 10:50 (00:50 UTC)

예보

예보는 1 시간 28분 전, 23:22시(UTC)에 발표되었습니다.
예보 대상 시간: 18일 00시부터 19일 06시까지 (UTC)
동북동11kt
시정: 10km
고도 2000ft 상공 구름 조금
고도 5000ft 상공 구름 보통
고도 12000ft 상공 구름 많음
시계 내 소나기
일시적
18일 00시부터 18일 04시까지 (UTC)
시정: 8.0km
고도 1600ft 상공 구름 보통
고도 2500ft 상공 구름 많음
소나기
18일 0400시부터 (UTC)
동북동11kt, 순간 최대 풍속 18kt
시정: 10km
고도 2500ft 상공 구름 조금
고도 6000ft 상공 구름 보통
18일 0800시부터 (UTC)
동북동9kt
시정: 10km
고도 2500ft 상공 구름 조금
고도 6000ft 상공 구름 보통

TAF: PGUM 172322Z 1800/1906 07011KT P6SM VCSH FEW020 SCT050 BKN120 TEMPO 1800/1804 5SM SHRA SCT016 BKN025 FM180400 06011G18KT P6SM FEW025 SCT060 FM180800 07009KT P6SM FEW025 SCT060

4,000개 이상의 공항 관측 자료 및 예보 (METAR 및 TAF 보고).

지도상에서 검색 가능한 기상관측소가 노란 점과 빨간 점으로 표시되어 있습니다.

기상관측소 명을 보려면 표시 위로 마우스를 이동하세요.

날씨 관측과 예보를 보려면 클릭하세요.

지도 변경 : 확대하려면 엑스 표시가 있는 녹색 버튼, 축소하려면 빼기 표시가 있는 녹색 버튼, 다음 페이지의 지도를 보려면 녹색 화살표를 클릭하세요.


METAR-TAF: